• Join FlightAware (Why Join?)
  • Login
  • US Flag 
01:04AM EDT


 

Airport Tracker/Info


-or-


 

Live Flight TrackerFlight Track Log ✈ JIA2328 ✈ 24-May-2013 ✈ KCLT - KOAJ

Flight Track Log - Related Links

Times and Time Zones

All times are in EDT time to prevent confusion due to time zone crossing. See the JIA2328 flight status page for this flight to view local times or setup timezone preferences in your user account.

Time Position Orientation Groundspeed Altitude Reporting Facility
EDT Latitude Longitude Course Direction KTS MPH feet Rate Location/Type
07:11PM 35.2431 -80.9389 106° East 148 170 2,100  Level Atlanta Center
07:12PM 35.3006 -80.9061 25° Northeast 218 251 5,200 2,400 Climbing Atlanta Center
07:13PM 35.2961 -80.8147 93° East 243 280 7,800 2,160 Climbing Atlanta Center
07:14PM 35.0647 -80.4917 106° East  Level FlightAware Approximate
07:14PM 35.2917 -80.7233 93° East 308 354 9,700  Level Atlanta Center
07:15PM 35.0342 -80.3632 106° East  Level FlightAware Approximate
07:15PM 35.2575 -80.6178 112° Southeast 344 396 10,900  Level Atlanta Center
07:16PM 35.0036 -80.2348 106° East  Level FlightAware Approximate
07:16PM 35.2350 -80.4892 102° East 358 412 11,800  Level Atlanta Center
07:19PM 35.1889 -80.1464 99° East 435 501 14,800 1,200 Climbing Washington Center
07:20PM 35.1689 -80.0081 100° East 441 507 15,800 1,080 Climbing Washington Center
07:21PM 35.1478 -79.8467 99° East 447 514 17,000 900 Climbing Washington Center
07:22PM 35.1297 -79.7036 99° East 454 522 17,700 660 Climbing Washington Center
07:23PM 35.1078 -79.5500 100° East 460 529 18,400 540 Climbing Washington Center
07:24PM 35.0861 -79.3867 99° East 467 537 18,900 240 Climbing Washington Center
07:25PM 35.0619 -79.2231 100° East 478 550 19,000  Climbing Washington Center
07:26PM 35.0394 -79.0622 100° East 478 550 19,000  Level Washington Center
07:27PM 35.0114 -78.8811 101° East 490 564 19,000  Level Washington Center
07:28PM 34.9758 -78.7225 105° East 490 564 19,000 -360 Level Washington Center
07:29PM 34.9403 -78.5589 105° East 490 564 18,300 -1,740 Descending Washington Center
07:30PM 34.9067 -78.4058 105° East 490 564 15,600 -2,820 Descending Washington Center
07:31PM 34.8744 -78.2603 105° East 468 539 12,700 -2,460 Descending Washington Center
07:32PM 34.8461 -78.1253 104° East 439 505 10,700 -1,680 Descending Washington Center
07:33PM 34.8172 -78.0056 106° East 402 463 9,400 -1,800 Descending Washington Center
07:34PM 34.7961 -77.9139 106° East 357 411 7,200 -2,220 Descending Washington Center